createdAt,value
2017-08-29T00:00:49.783Z,0
2017-08-29T00:01:49.416Z,0
2017-08-29T00:02:49.409Z,0
2017-08-29T00:03:50.236Z,0
2017-08-29T00:04:49.385Z,0
2017-08-29T00:05:49.049Z,0
2017-08-29T00:06:50.008Z,0
2017-08-29T00:07:49.032Z,0
2017-08-29T00:08:49.343Z,0
2017-08-29T00:09:49.007Z,0
2017-08-29T00:10:49.641Z,0
2017-08-29T00:11:49.312Z,0
2017-08-29T00:12:49.944Z,0
2017-08-29T00:13:49.956Z,0
2017-08-29T00:14:49.598Z,0
2017-08-29T00:15:49.264Z,0
2017-08-29T00:16:49.894Z,0
2017-08-29T00:17:49.563Z,0
2017-08-29T00:18:49.553Z,0
2017-08-29T00:19:49.550Z,0
2017-08-29T00:20:49.535Z,0
2017-08-29T00:21:49.884Z,0
2017-08-29T00:22:49.513Z,0
2017-08-29T00:23:49.528Z,0
2017-08-29T00:24:48.848Z,0
2017-08-29T00:25:48.839Z,0
2017-08-29T00:26:49.797Z,0
2017-08-29T00:27:49.136Z,0
2017-08-29T00:28:49.132Z,0
2017-08-29T00:29:49.120Z,0
2017-08-29T00:30:49.110Z,0
2017-08-29T00:31:49.100Z,0
2017-08-29T00:32:48.766Z,0
2017-08-29T00:33:49.391Z,0
2017-08-29T00:34:49.071Z,0
2017-08-29T00:35:49.412Z,0
2017-08-29T00:36:49.367Z,0
2017-08-29T00:37:49.684Z,0
2017-08-29T00:38:49.343Z,0
2017-08-29T00:39:49.330Z,0
2017-08-29T00:40:49.322Z,0
2017-08-29T00:41:49.628Z,0
2017-08-29T00:42:48.978Z,0
2017-08-29T00:43:48.650Z,0
2017-08-29T00:44:49.602Z,0
2017-08-29T00:45:49.265Z,0
2017-08-29T00:46:48.620Z,0
2017-08-29T00:47:49.245Z,0
2017-08-29T00:48:49.244Z,0
2017-08-29T00:49:49.265Z,0
2017-08-29T00:50:49.247Z,0
2017-08-29T00:51:48.905Z,0
2017-08-29T00:52:49.220Z,0
2017-08-29T00:53:49.189Z,0
2017-08-29T00:54:48.850Z,0
2017-08-29T00:55:48.520Z,0
2017-08-29T00:56:49.150Z,0
2017-08-29T00:57:48.868Z,0
2017-08-29T00:58:48.816Z,0
2017-08-29T00:59:49.117Z,0
2017-08-29T01:00:48.463Z,0
2017-08-29T01:01:49.112Z,0
2017-08-29T01:02:49.426Z,0
2017-08-29T01:03:48.434Z,0
2017-08-29T01:04:49.071Z,0
2017-08-29T01:05:49.078Z,0
2017-08-29T01:06:49.363Z,0
2017-08-29T01:07:49.040Z,0
2017-08-29T01:08:48.389Z,0
2017-08-29T01:09:48.703Z,0
2017-08-29T01:10:48.363Z,0
2017-08-29T01:11:49.002Z,0
2017-08-29T01:12:48.988Z,0
2017-08-29T01:13:48.970Z,0
2017-08-29T01:14:48.966Z,0
2017-08-29T01:15:48.946Z,0
2017-08-29T01:16:49.267Z,0
2017-08-29T01:17:48.984Z,0
2017-08-29T01:18:48.596Z,0
2017-08-29T01:19:48.588Z,0
2017-08-29T01:20:48.573Z,0
2017-08-29T01:21:48.564Z,0
2017-08-29T01:22:48.875Z,0
2017-08-29T01:23:48.539Z,0
2017-08-29T01:24:48.531Z,0
2017-08-29T01:25:48.839Z,0
2017-08-29T01:26:48.834Z,0
2017-08-29T01:27:48.497Z,0
2017-08-29T01:28:48.813Z,0
2017-08-29T01:29:48.797Z,0
2017-08-29T01:30:48.152Z,0
2017-08-29T01:31:48.777Z,0
2017-08-29T01:32:48.451Z,0
2017-08-29T01:33:48.433Z,0
2017-08-29T01:34:48.743Z,0
2017-08-29T01:35:49.052Z,0
2017-08-29T01:36:48.083Z,0
2017-08-29T01:37:49.036Z,0
2017-08-29T01:38:48.382Z,0
2017-08-29T01:39:48.371Z,0
2017-08-29T01:40:48.358Z,0
2017-08-29T01:41:48.676Z,0
2017-08-29T01:42:48.333Z,0
2017-08-29T01:43:48.658Z,0
2017-08-29T01:44:48.961Z,0
2017-08-29T01:45:47.980Z,0
2017-08-29T01:46:48.616Z,0
2017-08-29T01:47:48.280Z,0
2017-08-29T01:48:48.596Z,0
2017-08-29T01:49:47.940Z,0
2017-08-29T01:50:48.575Z,0
2017-08-29T01:51:48.243Z,0
2017-08-29T01:52:48.581Z,0
2017-08-29T01:53:48.541Z,0
2017-08-29T01:54:48.215Z,0
2017-08-29T01:55:48.524Z,0
2017-08-29T01:56:48.193Z,0
2017-08-29T01:57:48.815Z,0
2017-08-29T01:58:48.497Z,0
2017-08-29T01:59:48.158Z,0
2017-08-29T02:00:48.464Z,0
2017-08-29T02:01:48.133Z,0
2017-08-29T02:02:48.453Z,0
2017-08-29T02:03:48.313Z,0
2017-08-29T02:04:47.785Z,0
2017-08-29T02:05:48.100Z,0
2017-08-29T02:06:48.405Z,0
2017-08-29T02:07:48.719Z,0
2017-08-29T02:08:48.057Z,0
2017-08-29T02:09:48.687Z,0
2017-08-29T02:10:48.058Z,0
2017-08-29T02:11:48.675Z,0
2017-08-29T02:12:48.336Z,0
2017-08-29T02:13:48.004Z,0
2017-08-29T02:14:48.637Z,0
2017-08-29T02:15:48.299Z,0
2017-08-29T02:16:48.612Z,0
2017-08-29T02:17:47.645Z,0
2017-08-29T02:18:48.281Z,0
2017-08-29T02:19:47.971Z,0
2017-08-29T02:20:48.573Z,0
2017-08-29T02:21:47.917Z,0
2017-08-29T02:22:48.227Z,0
2017-08-29T02:23:48.221Z,0
2017-08-29T02:24:47.885Z,0
2017-08-29T02:25:48.198Z,0
2017-08-29T02:26:48.510Z,0
2017-08-29T02:27:48.533Z,0
2017-08-29T02:28:48.175Z,0
2017-08-29T02:29:47.838Z,0
2017-08-29T02:30:47.850Z,0
2017-08-29T02:31:47.831Z,0
2017-08-29T02:32:47.808Z,0
2017-08-29T02:33:48.116Z,0
2017-08-29T02:34:48.115Z,0
2017-08-29T02:35:48.410Z,0
2017-08-29T02:36:48.406Z,0
2017-08-29T02:37:48.394Z,0
2017-08-29T02:38:48.061Z,0
2017-08-29T02:39:48.051Z,0
2017-08-29T02:40:48.033Z,0
2017-08-29T02:41:48.023Z,0
2017-08-29T02:42:48.018Z,0
2017-08-29T02:43:48.012Z,0
2017-08-29T02:44:47.675Z,0
2017-08-29T02:45:47.983Z,0
2017-08-29T02:46:47.974Z,0
2017-08-29T02:47:47.961Z,0
2017-08-29T02:48:48.282Z,0
2017-08-29T02:49:47.618Z,0
2017-08-29T02:50:48.248Z,0
2017-08-29T02:51:48.305Z,0
2017-08-29T02:52:47.909Z,0
2017-08-29T02:53:47.572Z,0
2017-08-29T02:54:47.899Z,0
2017-08-29T02:55:47.550Z,0
2017-08-29T02:56:47.554Z,0
2017-08-29T02:57:47.855Z,0
2017-08-29T02:58:47.847Z,0
2017-08-29T02:59:47.187Z,0
2017-08-29T03:00:47.498Z,0
2017-08-29T03:01:47.485Z,0
2017-08-29T03:02:47.480Z,0
2017-08-29T03:03:47.466Z,0
2017-08-29T03:04:47.772Z,0
2017-08-29T03:05:47.116Z,0
2017-08-29T03:06:47.431Z,0
2017-08-29T03:07:47.426Z,0
2017-08-29T03:08:47.429Z,0
2017-08-29T03:09:48.089Z,0
2017-08-29T03:10:47.384Z,0
2017-08-29T03:11:47.077Z,0
2017-08-29T03:12:47.724Z,0
2017-08-29T03:13:47.351Z,0
2017-08-29T03:14:47.665Z,0
2017-08-29T03:15:47.336Z,0
2017-08-29T03:16:47.321Z,0
2017-08-29T03:17:47.004Z,0
2017-08-29T03:18:47.659Z,0
2017-08-29T03:19:47.619Z,0
2017-08-29T03:20:47.287Z,0
2017-08-29T03:21:47.594Z,0
2017-08-29T03:22:47.257Z,0
2017-08-29T03:23:47.883Z,0
2017-08-29T03:24:46.915Z,0
2017-08-29T03:25:47.540Z,0
2017-08-29T03:26:46.889Z,0
2017-08-29T03:27:47.846Z,0
2017-08-29T03:28:47.194Z,0
2017-08-29T03:29:47.562Z,0
2017-08-29T03:30:47.177Z,0
2017-08-29T03:31:47.161Z,0
2017-08-29T03:32:47.472Z,0
2017-08-29T03:33:47.141Z,0
2017-08-29T03:34:47.129Z,0
2017-08-29T03:35:46.796Z,0
2017-08-29T03:36:47.739Z,0
2017-08-29T03:37:47.413Z,0
2017-08-29T03:38:47.404Z,0
2017-08-29T03:39:46.751Z,0
2017-08-29T03:40:47.432Z,0
2017-08-29T03:41:47.373Z,0
2017-08-29T03:42:47.359Z,0
2017-08-29T03:43:47.023Z,0
2017-08-29T03:44:47.658Z,0
2017-08-29T03:45:47.000Z,0
2017-08-29T03:46:46.998Z,0
2017-08-29T03:47:46.987Z,0
2017-08-29T03:48:46.976Z,0
2017-08-29T03:49:47.282Z,0
2017-08-29T03:50:47.287Z,0
2017-08-29T03:51:47.257Z,0
2017-08-29T03:52:47.568Z,0
2017-08-29T03:53:47.574Z,0
2017-08-29T03:54:47.232Z,0
2017-08-29T03:55:46.922Z,0
2017-08-29T03:56:47.219Z,0
2017-08-29T03:57:46.879Z,0
2017-08-29T03:58:47.510Z,0
2017-08-29T03:59:47.183Z,0
2017-08-29T04:00:46.525Z,0
2017-08-29T04:01:47.149Z,0
2017-08-29T04:02:47.145Z,0
2017-08-29T04:03:47.213Z,0
2017-08-29T04:04:46.796Z,0
2017-08-29T04:05:46.464Z,0
2017-08-29T04:06:47.438Z,4
2017-08-29T04:07:46.442Z,4
2017-08-29T04:08:46.747Z,0
2017-08-29T04:09:47.060Z,4
2017-08-29T04:10:47.047Z,4
2017-08-29T04:11:46.395Z,4
2017-08-29T04:12:46.752Z,4
2017-08-29T04:13:47.014Z,4
2017-08-29T04:14:46.684Z,4
2017-08-29T04:15:46.995Z,8
2017-08-29T04:16:46.986Z,12
2017-08-29T04:17:47.288Z,8
2017-08-29T04:18:47.281Z,12
2017-08-29T04:19:46.954Z,12
2017-08-29T04:20:46.944Z,20
2017-08-29T04:21:46.959Z,20
2017-08-29T04:22:46.268Z,24
2017-08-29T04:23:46.911Z,28
2017-08-29T04:24:46.569Z,32
2017-08-29T04:25:47.287Z,40
2017-08-29T04:26:46.873Z,44
2017-08-29T04:27:46.856Z,48
2017-08-29T04:28:46.846Z,56
2017-08-29T04:29:46.839Z,64
2017-08-29T04:30:46.505Z,68
2017-08-29T04:31:46.494Z,80
2017-08-29T04:32:46.809Z,88
2017-08-29T04:33:46.470Z,100
2017-08-29T04:34:46.465Z,112
2017-08-29T04:35:46.467Z,120
2017-08-29T04:36:46.763Z,132
2017-08-29T04:37:46.431Z,144
2017-08-29T04:38:46.421Z,156
2017-08-29T04:39:46.406Z,172
2017-08-29T04:40:46.070Z,184
2017-08-29T04:41:46.061Z,200
2017-08-29T04:42:46.050Z,216
2017-08-29T04:43:46.999Z,232
2017-08-29T04:44:46.344Z,248
2017-08-29T04:45:46.338Z,264
2017-08-29T04:46:46.648Z,284
2017-08-29T04:47:46.311Z,300
2017-08-29T04:48:46.620Z,316
2017-08-29T04:49:46.293Z,336
2017-08-29T04:50:46.921Z,356
2017-08-29T04:51:46.268Z,376
2017-08-29T04:52:46.581Z,396
2017-08-29T04:53:46.250Z,416
2017-08-29T04:54:46.553Z,436
2017-08-29T04:55:45.901Z,456
2017-08-29T04:56:46.216Z,476
2017-08-29T04:57:46.199Z,496
2017-08-29T04:58:46.517Z,516
2017-08-29T04:59:46.174Z,540
2017-08-29T05:00:46.485Z,560
2017-08-29T05:01:46.469Z,580
2017-08-29T05:02:46.186Z,600
2017-08-29T05:03:46.456Z,624
2017-08-29T05:04:46.761Z,644
2017-08-29T05:05:46.756Z,668
2017-08-29T05:06:46.096Z,692
2017-08-29T05:07:46.409Z,712
2017-08-29T05:08:46.078Z,740
2017-08-29T05:09:46.714Z,764
2017-08-29T05:10:46.694Z,788
2017-08-29T05:11:45.722Z,808
2017-08-29T05:12:46.669Z,836
2017-08-29T05:13:46.019Z,860
2017-08-29T05:14:46.657Z,880
2017-08-29T05:15:46.317Z,904
2017-08-29T05:16:45.668Z,928
2017-08-29T05:17:45.976Z,952
2017-08-29T05:18:46.283Z,968
2017-08-29T05:19:46.593Z,988
2017-08-29T05:20:45.943Z,1012
2017-08-29T05:21:45.943Z,1032
2017-08-29T05:22:45.603Z,1056
2017-08-29T05:23:46.230Z,1076
2017-08-29T05:24:45.904Z,1104
2017-08-29T05:25:45.899Z,1124
2017-08-29T05:26:46.190Z,1144
2017-08-29T05:27:46.185Z,1168
2017-08-29T05:28:45.856Z,1188
2017-08-29T05:29:45.523Z,1212
2017-08-29T05:30:46.151Z,1232
2017-08-29T05:31:45.495Z,1252
2017-08-29T05:32:46.448Z,1276
2017-08-29T05:33:45.800Z,1296
2017-08-29T05:34:46.109Z,1320
2017-08-29T05:35:45.768Z,1352
2017-08-29T05:36:46.087Z,1376
2017-08-29T05:37:46.404Z,1400
2017-08-29T05:38:45.739Z,1428
2017-08-29T05:39:46.053Z,1452
2017-08-29T05:40:45.396Z,1472
2017-08-29T05:41:46.029Z,1484
2017-08-29T05:42:45.690Z,1488
2017-08-29T05:43:46.319Z,1488
2017-08-29T05:44:45.675Z,1496
2017-08-29T05:45:45.980Z,1512
2017-08-29T05:46:45.648Z,1536
2017-08-29T05:47:45.967Z,1556
2017-08-29T05:48:45.629Z,1568
2017-08-29T05:49:45.935Z,1584
2017-08-29T05:50:46.249Z,1608
2017-08-29T05:51:45.925Z,1632
2017-08-29T05:52:45.903Z,1652
2017-08-29T05:53:46.228Z,1668
2017-08-29T05:54:45.561Z,1692
2017-08-29T05:55:45.551Z,1716
2017-08-29T05:56:45.541Z,1736
2017-08-29T05:57:46.180Z,1744
2017-08-29T05:58:45.521Z,1748
2017-08-29T05:59:45.508Z,1768
2017-08-29T06:00:45.821Z,1792
2017-08-29T06:01:45.815Z,1820
2017-08-29T06:02:46.120Z,1856
2017-08-29T06:03:46.134Z,1896
2017-08-29T06:04:46.298Z,1928
2017-08-29T06:05:45.768Z,1960
2017-08-29T06:06:46.083Z,1980
2017-08-29T06:07:45.746Z,2004
2017-08-29T06:08:45.739Z,2028
2017-08-29T06:09:45.727Z,2056
2017-08-29T06:10:46.036Z,2088
2017-08-29T06:11:45.704Z,2116
2017-08-29T06:12:45.696Z,2132
2017-08-29T06:13:45.679Z,2152
2017-08-29T06:14:45.351Z,2184
2017-08-29T06:15:45.660Z,2212
2017-08-29T06:16:45.646Z,2244
2017-08-29T06:17:45.639Z,2272
2017-08-29T06:18:44.987Z,2304
2017-08-29T06:19:45.954Z,2332
2017-08-29T06:20:45.291Z,2360
2017-08-29T06:21:45.279Z,2384
2017-08-29T06:22:45.271Z,2408
2017-08-29T06:23:45.630Z,2428
2017-08-29T06:24:44.923Z,2440
2017-08-29T06:25:45.889Z,2460
2017-08-29T06:26:45.880Z,2480
2017-08-29T06:27:45.219Z,2492
2017-08-29T06:28:45.205Z,2500
2017-08-29T06:29:45.518Z,2508
2017-08-29T06:30:45.824Z,2512
2017-08-29T06:31:45.496Z,2516
2017-08-29T06:32:45.809Z,2532
2017-08-29T06:33:45.159Z,2552
2017-08-29T06:34:45.465Z,2568
2017-08-29T06:35:45.464Z,2584
2017-08-29T06:36:45.124Z,2588
2017-08-29T06:37:45.112Z,2596
2017-08-29T06:38:45.426Z,2604
2017-08-29T06:39:45.159Z,2608
2017-08-29T06:40:45.088Z,2612
2017-08-29T06:41:45.402Z,2624
2017-08-29T06:42:44.754Z,2636
2017-08-29T06:43:45.378Z,2660
2017-08-29T06:44:45.046Z,2684
2017-08-29T06:45:45.362Z,2692
2017-08-29T06:46:44.704Z,2700
2017-08-29T06:47:44.699Z,2712
2017-08-29T06:48:45.338Z,2724
2017-08-29T06:49:45.005Z,2740
2017-08-29T06:50:45.311Z,2748
2017-08-29T06:51:44.982Z,2756
2017-08-29T06:52:44.972Z,2768
2017-08-29T06:53:45.677Z,2780
2017-08-29T06:54:44.958Z,2800
2017-08-29T06:55:44.946Z,2816
2017-08-29T06:56:44.612Z,2832
2017-08-29T06:57:44.923Z,2848
2017-08-29T06:58:45.239Z,2872
2017-08-29T06:59:44.902Z,2896
2017-08-29T07:00:44.896Z,2908
2017-08-29T07:01:45.529Z,2920
2017-08-29T07:02:44.880Z,2924
2017-08-29T07:03:44.866Z,2932
2017-08-29T07:04:45.501Z,2948
2017-08-29T07:05:44.848Z,2964
2017-08-29T07:06:44.839Z,2988
2017-08-29T07:07:45.150Z,3000
2017-08-29T07:08:45.463Z,3012
2017-08-29T07:09:44.490Z,3024
2017-08-29T07:10:45.281Z,3032
2017-08-29T07:11:45.125Z,3044
2017-08-29T07:12:45.118Z,3048
2017-08-29T07:13:45.101Z,3052
2017-08-29T07:14:45.108Z,3064
2017-08-29T07:15:45.408Z,3076
2017-08-29T07:16:44.751Z,3092
2017-08-29T07:17:45.380Z,3116
2017-08-29T07:18:45.052Z,3136
2017-08-29T07:19:45.045Z,3156
2017-08-29T07:20:45.034Z,3176
2017-08-29T07:21:45.028Z,3200
2017-08-29T07:22:45.012Z,3220
2017-08-29T07:23:44.364Z,3240
2017-08-29T07:24:44.996Z,3256
2017-08-29T07:25:44.680Z,3268
2017-08-29T07:26:44.349Z,3280
2017-08-29T07:27:44.652Z,3300
2017-08-29T07:28:44.639Z,3316
2017-08-29T07:29:44.634Z,3320
2017-08-29T07:30:44.941Z,3328
2017-08-29T07:31:44.934Z,3340
2017-08-29T07:32:44.628Z,3356
2017-08-29T07:33:44.597Z,3376
2017-08-29T07:34:44.907Z,3384
2017-08-29T07:35:44.911Z,3384
2017-08-29T07:36:45.215Z,3392
2017-08-29T07:37:44.891Z,3404
2017-08-29T07:38:44.237Z,3412
2017-08-29T07:39:44.594Z,3428
2017-08-29T07:40:44.859Z,3444
2017-08-29T07:41:45.172Z,3460
2017-08-29T07:42:44.843Z,3472
2017-08-29T07:43:44.837Z,3480
2017-08-29T07:44:44.516Z,3504
2017-08-29T07:45:45.142Z,3508
2017-08-29T07:46:45.131Z,3516
2017-08-29T07:47:44.804Z,3516
2017-08-29T07:48:45.122Z,3524
2017-08-29T07:49:44.463Z,3536
2017-08-29T07:50:44.188Z,3552
2017-08-29T07:51:44.771Z,3580
2017-08-29T07:52:45.091Z,3624
2017-08-29T07:53:44.755Z,3648
2017-08-29T07:54:44.748Z,3656
2017-08-29T07:55:44.739Z,3684
2017-08-29T07:56:44.774Z,3716
2017-08-29T07:57:44.405Z,3732
2017-08-29T07:58:44.078Z,3768
2017-08-29T07:59:45.028Z,3836
2017-08-29T08:00:44.734Z,3900
2017-08-29T08:01:44.065Z,3976
2017-08-29T08:02:44.375Z,4068
2017-08-29T08:03:45.025Z,4180
2017-08-29T08:04:44.871Z,4248
2017-08-29T08:05:44.339Z,4280
2017-08-29T08:06:44.334Z,4296
2017-08-29T08:07:44.972Z,4272
2017-08-29T08:08:44.964Z,4252
2017-08-29T08:09:44.963Z,4284
2017-08-29T08:10:43.982Z,4304
2017-08-29T08:11:44.293Z,4320
2017-08-29T08:12:44.634Z,4496
2017-08-29T08:13:44.608Z,6092
2017-08-29T08:14:44.277Z,13172
2017-08-29T08:15:44.268Z,1972
2017-08-29T08:16:44.578Z,5304
2017-08-29T08:17:44.902Z,6932
2017-08-29T08:18:44.568Z,2564
2017-08-29T08:19:44.559Z,4864
2017-08-29T08:20:44.559Z,4936
2017-08-29T08:21:44.560Z,5204
2017-08-29T08:22:44.541Z,7752
2017-08-29T08:23:44.222Z,11876
2017-08-29T08:24:44.854Z,13120
2017-08-29T08:25:44.518Z,12880
2017-08-29T08:26:44.194Z,13808
2017-08-29T08:27:44.188Z,12088
2017-08-29T08:28:44.185Z,9200
2017-08-29T08:29:44.253Z,7032
2017-08-29T08:30:44.489Z,6004
2017-08-29T08:31:44.489Z,5120
2017-08-29T08:32:44.152Z,4844
2017-08-29T08:33:44.303Z,4780
2017-08-29T08:34:44.146Z,5004
2017-08-29T08:35:44.139Z,5164
2017-08-29T08:36:44.459Z,6560
2017-08-29T08:37:44.446Z,6540
2017-08-29T08:38:44.153Z,6164
2017-08-29T08:39:44.167Z,4832
2017-08-29T08:40:44.745Z,4728
2017-08-29T08:41:44.741Z,4752
2017-08-29T08:42:44.094Z,4776
2017-08-29T08:43:44.728Z,4852
2017-08-29T08:44:44.080Z,4940
2017-08-29T08:45:44.399Z,6228
2017-08-29T08:46:44.391Z,5056
2017-08-29T08:47:44.381Z,4952
2017-08-29T08:48:44.063Z,5064
2017-08-29T08:49:44.415Z,5240
2017-08-29T08:50:44.390Z,4820
2017-08-29T08:51:44.700Z,4828
2017-08-29T08:52:44.359Z,4840
2017-08-29T08:53:44.355Z,4916
2017-08-29T08:54:44.077Z,4920
2017-08-29T08:55:44.019Z,4976
2017-08-29T08:56:43.689Z,4960
2017-08-29T08:57:44.000Z,5124
2017-08-29T08:58:43.996Z,5076
2017-08-29T08:59:43.995Z,5136
2017-08-29T09:00:43.982Z,5172
2017-08-29T09:01:44.300Z,5196
2017-08-29T09:02:43.984Z,5232
2017-08-29T09:03:44.299Z,5308
2017-08-29T09:04:43.650Z,5388
2017-08-29T09:05:44.277Z,5492
2017-08-29T09:06:44.281Z,5584
2017-08-29T09:07:43.953Z,5616
2017-08-29T09:08:44.265Z,5692
2017-08-29T09:09:44.578Z,5692
2017-08-29T09:10:43.933Z,5832
2017-08-29T09:11:44.239Z,5876
2017-08-29T09:12:43.919Z,5900
2017-08-29T09:13:43.913Z,5972
2017-08-29T09:14:43.908Z,6028
2017-08-29T09:15:44.561Z,6080
2017-08-29T09:16:43.897Z,7220
2017-08-29T09:17:43.894Z,8480
2017-08-29T09:18:43.888Z,9288
2017-08-29T09:19:44.203Z,8152
2017-08-29T09:20:44.198Z,7636
2017-08-29T09:21:44.536Z,7788
2017-08-29T09:22:43.864Z,11036
2017-08-29T09:23:44.182Z,9228
2017-08-29T09:24:43.866Z,11632
2017-08-29T09:25:44.508Z,12072
2017-08-29T09:26:44.167Z,7256
2017-08-29T09:27:43.839Z,6760
2017-08-29T09:28:43.830Z,7280
2017-08-29T09:29:44.151Z,6892
2017-08-29T09:30:43.821Z,6512
2017-08-29T09:31:43.818Z,6328
2017-08-29T09:32:44.133Z,6276
2017-08-29T09:33:44.123Z,6260
2017-08-29T09:34:44.121Z,6252
2017-08-29T09:35:44.486Z,6288
2017-08-29T09:36:44.104Z,6272
2017-08-29T09:37:43.780Z,6248
2017-08-29T09:38:44.101Z,6216
2017-08-29T09:39:44.418Z,6216
2017-08-29T09:40:44.085Z,6364
2017-08-29T09:41:44.416Z,6864
2017-08-29T09:42:43.442Z,6708
2017-08-29T09:43:44.408Z,6528
2017-08-29T09:44:43.427Z,6548
2017-08-29T09:45:43.745Z,6600
2017-08-29T09:46:43.737Z,6768
2017-08-29T09:47:44.052Z,6952
2017-08-29T09:48:44.062Z,6720
2017-08-29T09:49:43.724Z,6748
2017-08-29T09:50:43.750Z,6780
2017-08-29T09:51:44.032Z,6800
2017-08-29T09:52:44.034Z,6780
2017-08-29T09:53:43.702Z,6736
2017-08-29T09:54:43.725Z,6724
2017-08-29T09:55:44.015Z,7192
2017-08-29T09:56:43.718Z,6716
2017-08-29T09:57:43.682Z,6708
2017-08-29T09:58:43.999Z,6728
2017-08-29T09:59:43.680Z,6748
2017-08-29T10:00:44.034Z,6768
2017-08-29T10:01:43.339Z,6800
2017-08-29T10:02:43.658Z,6844
2017-08-29T10:03:43.989Z,6948
2017-08-29T10:04:43.530Z,6888
2017-08-29T10:05:43.691Z,7092
2017-08-29T10:06:43.967Z,7112
2017-08-29T10:07:43.958Z,7184
2017-08-29T10:08:44.270Z,7128
2017-08-29T10:09:43.942Z,7308
2017-08-29T10:10:43.949Z,7392
2017-08-29T10:11:43.293Z,7476
2017-08-29T10:12:43.609Z,7544
2017-08-29T10:13:43.614Z,7596
2017-08-29T10:14:43.920Z,7660
2017-08-29T10:15:43.274Z,7804
2017-08-29T10:16:43.610Z,7920
2017-08-29T10:17:44.227Z,7940
2017-08-29T10:18:43.906Z,8032
2017-08-29T10:19:43.574Z,8208
2017-08-29T10:20:43.572Z,8180
2017-08-29T10:21:44.218Z,8232
2017-08-29T10:22:43.561Z,11532
2017-08-29T10:23:43.882Z,14444
2017-08-29T10:24:43.552Z,16332
2017-08-29T10:25:43.547Z,9008
2017-08-29T10:26:43.869Z,8000
2017-08-29T10:27:43.856Z,8012
2017-08-29T10:28:43.865Z,8228
2017-08-29T10:29:43.535Z,8708
2017-08-29T10:30:43.202Z,8412
2017-08-29T10:31:43.847Z,8644
2017-08-29T10:32:44.167Z,8884
2017-08-29T10:33:44.160Z,9184
2017-08-29T10:34:43.201Z,9936
2017-08-29T10:35:43.501Z,9528
2017-08-29T10:36:43.507Z,9800
2017-08-29T10:37:44.150Z,11300
2017-08-29T10:38:43.819Z,12148
2017-08-29T10:39:43.813Z,9916
2017-08-29T10:40:43.822Z,10560
2017-08-29T10:41:43.475Z,10272
2017-08-29T10:42:43.796Z,10224
2017-08-29T10:43:43.788Z,10548
2017-08-29T10:44:43.142Z,12748
2017-08-29T10:45:43.459Z,12588
2017-08-29T10:46:43.138Z,11936
2017-08-29T10:47:43.784Z,11172
2017-08-29T10:48:43.456Z,11388
2017-08-29T10:49:43.448Z,11516
2017-08-29T10:50:43.123Z,11840
2017-08-29T10:51:44.079Z,12260
2017-08-29T10:52:43.760Z,12404
2017-08-29T10:53:43.123Z,12996
2017-08-29T10:54:43.108Z,13528
2017-08-29T10:55:44.062Z,14920
2017-08-29T10:56:43.413Z,22176
2017-08-29T10:57:44.062Z,40512
2017-08-29T10:58:43.736Z,25408
2017-08-29T10:59:43.418Z,27136
2017-08-29T11:00:43.729Z,20128
2017-08-29T11:01:43.418Z,21440
2017-08-29T11:02:43.087Z,16844
2017-08-29T11:03:43.083Z,21216
2017-08-29T11:04:43.392Z,23968
2017-08-29T11:05:43.386Z,30656
2017-08-29T11:06:43.385Z,36608
2017-08-29T11:07:43.387Z,29632
2017-08-29T11:08:43.710Z,27072
2017-08-29T11:09:43.379Z,53728
2017-08-29T11:10:43.709Z,45152
2017-08-29T11:11:44.016Z,54208
2017-08-29T11:12:43.372Z,36256
2017-08-29T11:13:43.370Z,25280
2017-08-29T11:14:43.368Z,19904
2017-08-29T11:15:43.690Z,22752
2017-08-29T11:16:43.418Z,20800
2017-08-29T11:17:43.371Z,30816
2017-08-29T11:18:44.008Z,39616
2017-08-29T11:19:44.014Z,36608
2017-08-29T11:20:43.690Z,22848
2017-08-29T11:21:43.694Z,19424
2017-08-29T11:22:43.049Z,60128
2017-08-29T11:23:43.684Z,68032
2017-08-29T11:24:43.694Z,70336
2017-08-29T11:25:43.372Z,69216
2017-08-29T11:26:43.729Z,70816
2017-08-29T11:27:43.368Z,71392
2017-08-29T11:28:43.377Z,69408
2017-08-29T11:29:43.690Z,70080
2017-08-29T11:30:43.693Z,44320
2017-08-29T11:31:43.760Z,72064
2017-08-29T11:32:44.018Z,64864
2017-08-29T11:33:43.382Z,62560
2017-08-29T11:34:44.037Z,65344
2017-08-29T11:35:43.743Z,71040
2017-08-29T11:36:44.033Z,72192
2017-08-29T11:37:43.070Z,78464
2017-08-29T11:38:43.718Z,82784
2017-08-29T11:39:43.400Z,79296
2017-08-29T11:40:43.722Z,76352
2017-08-29T11:41:43.186Z,72448
2017-08-29T11:42:44.060Z,70592
2017-08-29T11:43:44.056Z,69568
2017-08-29T11:44:44.130Z,69184
2017-08-29T11:45:43.801Z,66592
2017-08-29T11:46:44.144Z,76576
2017-08-29T11:47:43.766Z,76000
2017-08-29T11:48:43.453Z,82464
2017-08-29T11:49:43.125Z,81376
2017-08-29T11:50:43.453Z,84928
2017-08-29T11:51:43.778Z,79520
2017-08-29T11:52:43.780Z,77024
2017-08-29T11:53:43.489Z,81088
2017-08-29T11:54:43.514Z,81568
2017-08-29T11:55:43.494Z,81728
2017-08-29T11:56:43.480Z,79552
2017-08-29T11:57:43.492Z,81536
2017-08-29T11:58:44.147Z,77312
2017-08-29T11:59:43.817Z,77984
2017-08-29T12:00:43.833Z,81056
2017-08-29T12:01:43.836Z,81376
2017-08-29T12:02:43.518Z,78784
2017-08-29T12:03:43.841Z,80928
2017-08-29T12:04:43.734Z,80704
2017-08-29T12:05:43.538Z,77536
2017-08-29T12:06:43.865Z,77824
2017-08-29T12:07:43.549Z,77184
2017-08-29T12:08:43.881Z,77408
2017-08-29T12:09:44.198Z,77600
2017-08-29T12:10:43.267Z,79168
2017-08-29T12:11:43.566Z,79872
2017-08-29T12:12:43.576Z,81088
2017-08-29T12:13:44.226Z,77088
2017-08-29T12:14:43.589Z,75968
2017-08-29T12:15:43.924Z,77152
2017-08-29T12:16:43.925Z,76352
2017-08-29T12:17:44.250Z,76352
2017-08-29T12:18:43.937Z,76448
2017-08-29T12:19:43.619Z,82816
2017-08-29T12:20:44.276Z,86592
2017-08-29T12:21:43.968Z,87840
2017-08-29T12:22:43.642Z,91328
2017-08-29T12:23:43.969Z,88704
2017-08-29T12:24:43.979Z,85536
2017-08-29T12:25:44.048Z,84192
2017-08-29T12:26:43.995Z,81184
2017-08-29T12:27:43.670Z,80672
2017-08-29T12:28:43.684Z,80992
2017-08-29T12:29:43.690Z,80928
2017-08-29T12:30:43.695Z,83968
2017-08-29T12:31:44.338Z,88960
2017-08-29T12:32:43.746Z,91136
2017-08-29T12:33:44.033Z,90144
2017-08-29T12:34:44.039Z,84032
2017-08-29T12:35:43.728Z,77696
2017-08-29T12:36:44.377Z,72128
2017-08-29T12:37:43.746Z,67584
2017-08-29T12:38:43.748Z,65504
2017-08-29T12:39:44.076Z,64096
2017-08-29T12:40:43.759Z,57440
2017-08-29T12:41:44.414Z,59776
2017-08-29T12:42:44.094Z,59488
2017-08-29T12:43:44.108Z,59520
2017-08-29T12:44:43.471Z,60352
2017-08-29T12:45:43.801Z,51552
2017-08-29T12:46:44.164Z,70912
2017-08-29T12:47:44.126Z,77888
2017-08-29T12:48:43.813Z,85408
2017-08-29T12:49:44.189Z,88640
2017-08-29T12:50:44.186Z,91520
2017-08-29T12:51:44.473Z,91072
2017-08-29T12:52:43.523Z,82944
2017-08-29T12:53:43.846Z,76608
2017-08-29T12:54:44.242Z,72192
2017-08-29T12:55:43.863Z,69440
2017-08-29T12:56:44.187Z,69568
2017-08-29T12:57:43.937Z,71424
2017-08-29T12:58:44.197Z,73344
2017-08-29T12:59:44.209Z,65312
2017-08-29T13:00:44.224Z,77280
2017-08-29T13:01:44.274Z,79264
2017-08-29T13:02:44.224Z,75264
2017-08-29T13:03:43.916Z,79488
2017-08-29T13:04:43.918Z,79744
2017-08-29T13:05:44.564Z,78688
2017-08-29T13:06:43.658Z,78368
2017-08-29T13:07:43.631Z,82080
2017-08-29T13:08:44.265Z,82016
2017-08-29T13:09:44.271Z,84448
2017-08-29T13:10:44.275Z,88352
2017-08-29T13:11:43.961Z,88096
2017-08-29T13:12:44.064Z,85664
2017-08-29T13:13:43.974Z,83648
2017-08-29T13:14:43.991Z,80448
2017-08-29T13:15:44.309Z,79040
2017-08-29T13:16:44.313Z,80672
2017-08-29T13:17:43.996Z,84032
2017-08-29T13:18:43.681Z,84736
2017-08-29T13:19:44.326Z,87616
2017-08-29T13:20:44.656Z,84608
2017-08-29T13:21:44.021Z,81056
2017-08-29T13:22:44.026Z,78304
2017-08-29T13:23:44.354Z,76640
2017-08-29T13:24:43.717Z,77280
2017-08-29T13:25:44.104Z,77312
2017-08-29T13:26:44.378Z,74336
2017-08-29T13:27:44.055Z,72736
2017-08-29T13:28:44.705Z,70688
2017-08-29T13:29:44.075Z,67712
2017-08-29T13:30:44.078Z,67872
2017-08-29T13:31:44.402Z,65536
2017-08-29T13:32:44.088Z,65088
2017-08-29T13:33:44.416Z,66304
2017-08-29T13:34:44.424Z,66496
2017-08-29T13:35:44.438Z,64128
2017-08-29T13:36:44.113Z,60192
2017-08-29T13:37:44.493Z,55136
2017-08-29T13:38:43.811Z,55424
2017-08-29T13:39:44.535Z,54624
2017-08-29T13:40:44.465Z,54688